Time;durP1;ratioP1;P1;durP2;ratioP2;P2;SDS_P1;SDS_P2;PMS_P1;PMS_P2;Temp;Humidity;BMP_temperature;BMP_pressure;BME280_temperature;BME280_humidity;BME280_pressure;Samples;Min_cycle;Max_cycle;Signal;HPM_P1;HPM_P2
2023/01/22 00:01:17;;;;;;;8.77;4.13;;;0.40;99.90;;;;;;4973725;28;20041;-75
2023/01/22 00:03:43;;;;;;;8.93;5.50;;;0.40;99.90;;;;;;4978887;28;20027;-75
2023/01/22 00:06:10;;;;;;;11.75;4.07;;;0.40;99.90;;;;;;4990869;28;20092;-75
2023/01/22 00:08:36;;;;;;;4.35;2.40;;;0.40;99.90;;;;;;4990286;28;20132;-75
2023/01/22 00:11:03;;;;;;;7.90;2.13;;;0.40;99.90;;;;;;4991092;28;20026;-75
2023/01/22 00:13:29;;;;;;;4.72;2.83;;;0.40;99.90;;;;;;4990431;28;20033;-75
2023/01/22 00:15:59;;;;;;;15.15;4.35;;;0.50;99.90;;;;;;4990285;28;20034;-74
2023/01/22 00:18:25;;;;;;;4.70;2.85;;;0.50;99.90;;;;;;4991190;28;20026;-75
2023/01/22 00:20:53;;;;;;;4.78;3.47;;;0.50;99.90;;;;;;4989366;28;20030;-75
2023/01/22 00:23:19;;;;;;;3.17;2.80;;;0.40;99.90;;;;;;4990287;28;20430;-75
2023/01/22 00:25:45;;;;;;;3.92;2.72;;;0.40;99.90;;;;;;4973436;28;20038;-75
2023/01/22 00:28:12;;;;;;;8.18;4.57;;;0.40;99.90;;;;;;4989843;28;20521;-75
2023/01/22 00:30:38;;;;;;;4.90;3.65;;;0.50;99.90;;;;;;4973066;28;20037;-75
2023/01/22 00:33:04;;;;;;;5.03;3.40;;;0.50;99.90;;;;;;4994835;28;20030;-74
2023/01/22 00:35:32;;;;;;;6.78;4.03;;;0.50;99.90;;;;;;4996340;28;20475;-75
2023/01/22 00:37:58;;;;;;;8.43;3.10;;;0.50;99.90;;;;;;4989918;28;20037;-75
2023/01/22 00:40:23;;;;;;;5.35;3.78;;;0.40;99.90;;;;;;4990433;28;20038;-75
2023/01/22 00:42:49;;;;;;;5.72;3.95;;;0.40;99.90;;;;;;4991447;28;20054;-75
2023/01/22 00:45:15;;;;;;;8.48;4.18;;;0.50;99.90;;;;;;4990367;28;20027;-75
2023/01/22 00:47:41;;;;;;;20.85;5.07;;;0.50;99.90;;;;;;4990943;28;20034;-75
2023/01/22 00:50:08;;;;;;;6.35;2.67;;;0.50;99.90;;;;;;4990531;28;20475;-75
2023/01/22 00:52:36;;;;;;;10.50;3.63;;;0.50;99.90;;;;;;4991215;28;20626;-75
2023/01/22 00:55:03;;;;;;;3.88;2.65;;;0.50;99.90;;;;;;4990169;28;20041;-76
2023/01/22 00:57:29;;;;;;;4.95;3.58;;;0.50;99.90;;;;;;4989860;28;20090;-75
2023/01/22 00:59:54;;;;;;;11.57;5.53;;;0.50;99.90;;;;;;4966320;28;20039;-76
2023/01/22 01:02:20;;;;;;;7.95;3.10;;;0.50;99.90;;;;;;4991300;28;20118;-76
2023/01/22 01:04:45;;;;;;;10.38;3.63;;;0.60;99.90;;;;;;4991074;28;20046;-75
2023/01/22 01:07:11;;;;;;;6.70;3.75;;;0.60;99.90;;;;;;4990984;28;20106;-75
2023/01/22 01:09:37;;;;;;;6.75;2.70;;;0.50;99.90;;;;;;4990680;28;20487;-75
2023/01/22 01:12:03;;;;;;;5.10;3.22;;;0.50;99.90;;;;;;4991066;28;20042;-75
2023/01/22 01:14:28;;;;;;;5.70;3.58;;;0.50;99.90;;;;;;4985830;28;20034;-75
2023/01/22 01:16:54;;;;;;;4.10;2.95;;;0.50;99.90;;;;;;4983981;28;20031;-76
2023/01/22 01:19:20;;;;;;;6.00;3.25;;;0.60;99.90;;;;;;4989851;28;20030;-75
2023/01/22 01:21:46;;;;;;;8.52;4.35;;;0.60;99.90;;;;;;4990837;28;20038;-75
2023/01/22 01:24:12;;;;;;;10.70;3.75;;;0.50;99.90;;;;;;4988730;28;20041;-75
2023/01/22 01:26:40;;;;;;;6.22;4.13;;;0.60;99.90;;;;;;4990672;28;20039;-76
2023/01/22 01:29:08;;;;;;;15.73;5.10;;;0.60;99.90;;;;;;4992305;28;20041;-76
2023/01/22 01:31:36;;;;;;;8.32;4.72;;;0.60;99.90;;;;;;4994762;28;20030;-76
2023/01/22 01:34:03;;;;;;;6.50;4.22;;;0.60;99.90;;;;;;4976316;28;20034;-76
2023/01/22 01:36:29;;;;;;;16.30;3.25;;;0.60;99.90;;;;;;4983269;28;20409;-76
2023/01/22 01:38:55;;;;;;;9.00;4.47;;;0.60;99.90;;;;;;4993280;28;20026;-76
2023/01/22 01:41:24;;;;;;;9.63;5.13;;;0.60;99.90;;;;;;4977277;28;20041;-76
2023/01/22 01:44:12;;;;;;;4.13;2.85;;;0.60;99.90;;;;;;4993027;28;20088;-76
2023/01/22 01:47:17;;;;;;;7.93;3.30;;;0.60;99.90;;;;;;4989145;28;20033;-75
2023/01/22 01:49:49;;;;;;;5.68;3.20;;;0.60;99.90;;;;;;4981244;28;20042;-76
2023/01/22 01:52:15;;;;;;;;;;;0.60;99.90;;;;;;4977649;28;20031;-75
2023/01/22 01:54:48;;;;;;;4.72;3.03;;;0.60;99.90;;;;;;4976144;28;19924;-76
2023/01/22 01:57:20;;;;;;;6.85;4.28;;;0.60;99.90;;;;;;4977395;28;20030;-76
2023/01/22 01:59:47;;;;;;;9.55;4.35;;;0.60;99.90;;;;;;4988823;28;20054;-76
2023/01/22 02:02:14;;;;;;;9.88;4.35;;;0.70;99.90;;;;;;4993401;28;20029;-76
2023/01/22 02:04:39;;;;;;;6.80;2.92;;;0.60;99.90;;;;;;4991827;28;20027;-76
2023/01/22 02:07:06;;;;;;;5.88;3.88;;;0.70;99.90;;;;;;4983837;28;20030;-76
2023/01/22 02:09:32;;;;;;;4.88;2.67;;;0.70;99.90;;;;;;4980884;28;20394;-76
2023/01/22 02:11:58;;;;;;;6.55;3.78;;;0.70;99.90;;;;;;4976426;28;20035;-76
2023/01/22 02:14:30;;;;;;;8.40;3.53;;;0.70;99.90;;;;;;4988292;28;20035;-76
2023/01/22 02:17:12;;;;;;;5.53;3.88;;;0.70;99.90;;;;;;4990864;28;20034;-76
2023/01/22 02:19:39;;;;;;;9.90;3.45;;;0.70;99.90;;;;;;4988414;28;20047;-76
2023/01/22 02:22:24;;;;;;;4.82;2.65;;;0.80;99.90;;;;;;4989718;28;20027;-76
2023/01/22 02:24:50;;;;;;;7.50;4.40;;;0.80;99.90;;;;;;5014747;23;20042;-79
2023/01/22 02:27:16;;;;;;;6.45;3.35;;;0.80;99.90;;;;;;5032141;28;20036;-80
2023/01/22 02:29:41;;;;;;;7.80;3.53;;;0.80;99.90;;;;;;5013854;28;20036;-80
2023/01/22 02:32:07;;;;;;;6.03;4.05;;;0.80;99.90;;;;;;5031909;28;20037;-80
2023/01/22 02:34:33;;;;;;;8.43;3.67;;;0.80;99.90;;;;;;5028686;28;20080;-80
2023/01/22 02:37:00;;;;;;;4.95;3.65;;;0.80;99.90;;;;;;5012428;28;20066;-79
2023/01/22 02:39:25;;;;;;;8.35;3.90;;;0.90;99.90;;;;;;5012623;28;20038;-80
2023/01/22 02:41:51;;;;;;;6.10;2.88;;;0.90;99.90;;;;;;5011938;28;20064;-79
2023/01/22 02:44:17;;;;;;;6.93;3.97;;;0.90;99.90;;;;;;5012789;28;20371;-79
2023/01/22 02:46:43;;;;;;;7.40;4.43;;;0.90;99.90;;;;;;5011598;28;20033;-80
2023/01/22 02:49:09;;;;;;;4.65;2.90;;;0.90;99.90;;;;;;5019968;28;20470;-79
2023/01/22 02:51:34;;;;;;;7.45;3.70;;;0.90;99.90;;;;;;5011783;28;20037;-79
2023/01/22 02:54:00;;;;;;;4.18;3.17;;;1.00;99.90;;;;;;5019793;28;20405;-78
2023/01/22 02:56:26;;;;;;;7.50;3.88;;;1.00;99.90;;;;;;5023792;28;20040;-78
2023/01/22 02:58:52;;;;;;;8.38;2.20;;;0.90;99.90;;;;;;5019680;28;20409;-78
2023/01/22 03:01:23;;;;;;;10.90;4.85;;;0.90;99.90;;;;;;5012579;28;20022;-78
2023/01/22 03:03:52;;;;;;;7.07;2.88;;;1.00;99.90;;;;;;5020556;28;20033;-77
2023/01/22 03:06:22;;;;;;;4.50;2.65;;;0.90;99.90;;;;;;4992665;28;20022;-77
2023/01/22 03:08:59;;;;;;;5.35;3.70;;;1.00;99.90;;;;;;4976883;28;20029;-76
2023/01/22 03:11:28;;;;;;;6.50;3.30;;;1.00;99.90;;;;;;4977579;28;20048;-76
2023/01/22 03:22:10;;;;;;;6.40;2.80;;;1.00;99.90;;;;;;5001146;28;20065;-77
2023/01/22 03:24:35;;;;;;;4.70;2.55;;;0.90;99.90;;;;;;5012113;28;20028;-76
2023/01/22 03:27:03;;;;;;;4.55;3.38;;;0.90;99.90;;;;;;5022519;28;20025;-77
2023/01/22 03:29:29;;;;;;;4.63;3.22;;;1.00;99.90;;;;;;5011866;28;20508;-76
2023/01/22 03:31:54;;;;;;;5.00;3.20;;;1.00;99.90;;;;;;5022505;28;20042;-77
2023/01/22 03:34:22;;;;;;;1.60;1.45;;;1.00;99.90;;;;;;5003059;28;20033;-78
2023/01/22 03:36:48;;;;;;;3.28;1.92;;;1.00;99.90;;;;;;5010448;28;20026;-78
2023/01/22 03:39:14;;;;;;;13.98;3.53;;;0.90;99.90;;;;;;5011401;28;20029;-78
2023/01/22 03:41:40;;;;;;;8.13;3.42;;;1.00;99.90;;;;;;5011401;28;20045;-78
2023/01/22 03:44:10;;;;;;;5.43;3.78;;;1.10;99.90;;;;;;5011711;28;20466;-77
2023/01/22 03:46:39;;;;;;;;;;;1.00;99.90;;;;;;5011127;28;20045;-77
2023/01/22 03:49:08;;;;;;;5.22;2.92;;;1.10;99.90;;;;;;5010711;28;19909;-78
2023/01/22 03:51:35;;;;;;;4.80;2.55;;;1.10;99.90;;;;;;5009653;28;20478;-78
2023/01/22 03:54:01;;;;;;;4.60;3.58;;;1.00;99.90;;;;;;5010535;28;20042;-78
2023/01/22 03:56:27;;;;;;;5.25;3.10;;;1.00;99.90;;;;;;5010706;28;20036;-78
2023/01/22 03:58:52;;;;;;;4.72;2.70;;;1.10;99.90;;;;;;5005982;28;20030;-77
2023/01/22 04:01:27;;;;;;;4.05;2.65;;;1.00;99.90;;;;;;5011454;28;20037;-77
2023/01/22 04:03:53;;;;;;;3.17;2.40;;;1.00;99.90;;;;;;5020996;28;20701;-77
2023/01/22 04:06:21;;;;;;;4.55;3.80;;;1.00;99.90;;;;;;5011307;28;20109;-77
2023/01/22 04:08:51;;;;;;;3.63;2.28;;;1.00;99.90;;;;;;5017437;28;20036;-78
2023/01/22 04:11:17;;;;;;;9.07;3.80;;;1.10;99.90;;;;;;5010702;28;20045;-77
2023/01/22 04:13:44;;;;;;;7.68;3.10;;;1.00;99.90;;;;;;5017950;28;20041;-78
2023/01/22 04:16:11;;;;;;;2.25;1.83;;;1.00;99.90;;;;;;5006795;28;20030;-77
2023/01/22 04:18:38;;;;;;;7.03;3.83;;;1.00;99.90;;;;;;5011876;28;20029;-78
2023/01/22 04:21:04;;;;;;;3.90;2.25;;;1.00;99.90;;;;;;5018222;28;20037;-78
2023/01/22 04:23:30;;;;;;;2.55;1.13;;;1.10;99.90;;;;;;5017483;28;20394;-77
2023/01/22 04:25:56;;;;;;;8.98;2.70;;;1.00;99.90;;;;;;5017991;28;20037;-78
2023/01/22 04:28:22;;;;;;;5.60;3.38;;;1.00;99.90;;;;;;5009878;28;20030;-78
2023/01/22 04:30:52;;;;;;;7.47;3.10;;;1.00;99.90;;;;;;5011021;28;20338;-78
2023/01/22 04:33:18;;;;;;;2.63;2.42;;;1.00;99.90;;;;;;5017328;28;20042;-78
2023/01/22 04:35:44;;;;;;;4.80;3.60;;;1.00;99.90;;;;;;5000773;28;20065;-77
2023/01/22 04:38:12;;;;;;;2.05;1.88;;;1.00;99.90;;;;;;5014118;28;20128;-78
2023/01/22 04:40:38;;;;;;;3.10;2.00;;;1.00;99.90;;;;;;5010399;28;20480;-78
2023/01/22 04:43:06;;;;;;;5.78;2.75;;;1.00;99.90;;;;;;5017831;28;20030;-78
2023/01/22 04:45:32;;;;;;;4.00;2.70;;;1.00;99.90;;;;;;5009960;28;20026;-78
2023/01/22 04:47:58;;;;;;;3.05;1.15;;;1.10;99.90;;;;;;5010738;28;20041;-78
2023/01/22 04:50:29;;;;;;;3.22;1.38;;;1.10;99.90;;;;;;5009640;28;20037;-77
2023/01/22 04:52:56;;;;;;;3.97;1.73;;;1.10;99.90;;;;;;5017809;28;20083;-78
2023/01/22 04:55:24;;;;;;;6.22;2.90;;;1.00;99.90;;;;;;5009689;28;20038;-78
2023/01/22 04:57:54;;;;;;;2.35;1.65;;;1.00;99.90;;;;;;5010269;28;20040;-78
2023/01/22 05:00:20;;;;;;;7.45;3.33;;;1.10;99.90;;;;;;5010044;28;20045;-78
2023/01/22 05:02:46;;;;;;;5.53;2.60;;;1.10;99.90;;;;;;5012076;28;20033;-78
2023/01/22 05:05:11;;;;;;;8.40;2.15;;;1.10;99.90;;;;;;5013658;28;20025;-78
2023/01/22 05:07:37;;;;;;;5.82;2.90;;;1.00;99.90;;;;;;5014589;28;20157;-78
2023/01/22 05:10:03;;;;;;;6.43;2.72;;;1.10;99.90;;;;;;5013994;28;20037;-77
2023/01/22 05:12:29;;;;;;;2.58;1.73;;;1.10;99.90;;;;;;5021845;28;20089;-78
2023/01/22 05:14:55;;;;;;;6.60;3.13;;;1.10;99.90;;;;;;5013527;28;20034;-78
2023/01/22 05:17:21;;;;;;;3.03;2.38;;;1.10;99.90;;;;;;5014066;28;20040;-78
2023/01/22 05:19:46;;;;;;;4.20;1.75;;;1.10;99.90;;;;;;5013746;28;20030;-78
2023/01/22 05:22:12;;;;;;;5.75;2.08;;;1.10;99.90;;;;;;5014422;28;20069;-78
2023/01/22 05:24:38;;;;;;;5.88;2.33;;;1.10;99.90;;;;;;5013889;28;20056;-77
2023/01/22 05:27:09;;;;;;;7.07;2.35;;;1.10;99.90;;;;;;5014050;28;20022;-79
2023/01/22 05:29:34;;;;;;;3.30;1.92;;;1.10;99.90;;;;;;5022595;28;20026;-78
2023/01/22 05:32:00;;;;;;;4.43;2.65;;;1.10;99.90;;;;;;5017047;28;20045;-78
2023/01/22 05:34:26;;;;;;;3.20;2.40;;;1.10;99.90;;;;;;5013183;28;20460;-77
2023/01/22 05:36:52;;;;;;;1.23;1.00;;;1.10;99.90;;;;;;5013823;28;20477;-76
2023/01/22 05:39:18;;;;;;;6.30;2.17;;;1.10;99.90;;;;;;5013207;28;20040;-76
2023/01/22 05:41:44;;;;;;;5.28;2.80;;;1.00;99.90;;;;;;5013826;28;20034;-76
2023/01/22 05:44:12;;;;;;;5.07;2.50;;;1.10;99.90;;;;;;5013504;28;20076;-76
2023/01/22 05:46:38;;;;;;;3.47;2.03;;;1.10;99.90;;;;;;5013839;28;20493;-77
2023/01/22 05:49:05;;;;;;;4.07;2.08;;;1.10;99.90;;;;;;5026812;28;20030;-77
2023/01/22 05:51:31;;;;;;;2.63;1.58;;;1.00;99.90;;;;;;5014082;28;20087;-76
2023/01/22 05:53:57;;;;;;;5.72;2.28;;;1.00;99.90;;;;;;5025013;28;20087;-77
2023/01/22 05:56:23;;;;;;;2.50;1.30;;;1.00;99.90;;;;;;5004027;28;20037;-77
2023/01/22 05:58:49;;;;;;;3.15;2.63;;;1.00;99.90;;;;;;5025496;28;20045;-77
2023/01/22 06:01:15;;;;;;;2.90;1.77;;;1.10;99.90;;;;;;5012693;28;20025;-77
2023/01/22 06:03:42;;;;;;;2.65;2.08;;;1.10;99.90;;;;;;5013563;28;20470;-76
2023/01/22 06:06:12;;;;;;;5.50;2.03;;;1.10;99.90;;;;;;4996493;28;20045;-76
2023/01/22 06:08:38;;;;;;;4.70;2.53;;;1.20;99.90;;;;;;5023197;28;20052;-76
2023/01/22 06:11:13;;;;;;;3.08;1.48;;;1.10;99.90;;;;;;5012908;28;20038;-76
2023/01/22 06:13:39;;;;;;;2.70;2.20;;;1.10;99.90;;;;;;5023145;28;20034;-77
2023/01/22 06:16:06;;;;;;;4.38;2.53;;;1.10;99.90;;;;;;5011665;28;20033;-77
2023/01/22 06:18:33;;;;;;;4.95;1.75;;;1.10;99.90;;;;;;5022656;28;20429;-77
2023/01/22 06:21:06;;;;;;;1.95;1.33;;;1.00;99.90;;;;;;5019156;28;20040;-77
2023/01/22 06:23:32;;;;;;;3.38;2.30;;;1.00;99.90;;;;;;5021947;28;20041;-77
2023/01/22 06:26:01;;;;;;;4.40;1.85;;;1.00;99.90;;;;;;5012013;28;20044;-77
2023/01/22 06:28:27;;;;;;;3.20;2.25;;;1.00;99.90;;;;;;5021681;28;20053;-77
2023/01/22 06:30:57;;;;;;;2.00;1.52;;;1.00;99.90;;;;;;5012155;28;20523;-77
2023/01/22 06:33:23;;;;;;;2.85;1.20;;;1.00;99.90;;;;;;5020932;28;20044;-77
2023/01/22 06:35:53;;;;;;;5.25;3.10;;;1.00;99.90;;;;;;5018952;28;20383;-76
2023/01/22 06:38:21;;;;;;;2.85;1.50;;;1.00;99.90;;;;;;5005592;28;20029;-77
2023/01/22 06:40:58;;;;;;;3.53;1.33;;;1.00;99.90;;;;;;4995574;28;20034;-76
2023/01/22 06:43:25;;;;;;;3.10;1.75;;;1.00;99.90;;;;;;4997843;28;20549;-77
2023/01/22 06:45:52;;;;;;;2.10;1.17;;;1.00;99.90;;;;;;5019038;28;20038;-77
2023/01/22 06:48:18;;;;;;;2.15;1.38;;;1.00;99.90;;;;;;5020158;28;20034;-77
2023/01/22 06:50:44;;;;;;;6.57;2.20;;;1.00;99.90;;;;;;5011744;28;20505;-77
2023/01/22 06:53:10;;;;;;;2.30;1.67;;;0.90;99.90;;;;;;5020030;28;20397;-77
2023/01/22 06:55:36;;;;;;;1.52;1.35;;;0.90;99.90;;;;;;5019070;28;20061;-77
2023/01/22 06:58:02;;;;;;;2.30;1.75;;;1.00;99.90;;;;;;5012427;28;20415;-77
2023/01/22 07:00:28;;;;;;;3.17;1.77;;;0.90;99.90;;;;;;5019008;28;20033;-76
2023/01/22 07:02:54;;;;;;;3.53;1.50;;;1.00;99.90;;;;;;5016599;28;20091;-76
2023/01/22 07:05:20;;;;;;;5.90;2.38;;;1.00;99.90;;;;;;5016627;28;20128;-77
2023/01/22 07:07:46;;;;;;;4.30;2.45;;;1.00;99.90;;;;;;5005309;28;20483;-77
2023/01/22 07:10:13;;;;;;;3.42;2.20;;;1.00;99.90;;;;;;5005198;28;20029;-77
2023/01/22 07:12:39;;;;;;;2.05;1.65;;;1.10;99.90;;;;;;5017507;28;20084;-78
2023/01/22 07:15:06;;;;;;;2.00;1.15;;;1.10;99.90;;;;;;5011895;28;20034;-77
2023/01/22 07:17:33;;;;;;;3.95;1.77;;;1.10;99.90;;;;;;5023206;28;20058;-80
2023/01/22 07:19:59;;;;;;;3.58;1.90;;;1.10;99.90;;;;;;5012605;28;20034;-75
2023/01/22 07:22:24;;;;;;;3.22;1.45;;;1.00;99.90;;;;;;5011268;28;20034;-75
2023/01/22 07:24:51;;;;;;;3.65;1.80;;;1.00;99.90;;;;;;5010411;28;20034;-75
2023/01/22 07:27:17;;;;;;;2.08;1.67;;;1.00;99.90;;;;;;5017673;28;20037;-77
2023/01/22 07:29:42;;;;;;;4.63;1.42;;;1.10;99.90;;;;;;5011065;28;20038;-75
2023/01/22 07:32:08;;;;;;;2.58;1.38;;;1.00;99.90;;;;;;5011865;28;20040;-75
2023/01/22 07:34:36;;;;;;;3.85;2.38;;;0.90;99.90;;;;;;5010989;28;20038;-75
2023/01/22 07:37:02;;;;;;;1.77;1.63;;;0.90;99.90;;;;;;5009724;28;20041;-79
2023/01/22 07:39:28;;;;;;;2.85;1.52;;;1.00;99.90;;;;;;5012036;28;20728;-75
2023/01/22 07:41:54;;;;;;;1.88;1.77;;;0.90;99.90;;;;;;5013920;28;20038;-74
2023/01/22 07:44:20;;;;;;;4.95;2.75;;;1.00;99.90;;;;;;5012200;28;20544;-75
2023/01/22 07:46:45;;;;;;;1.05;0.88;;;1.10;99.90;;;;;;4997976;28;20037;-79
2023/01/22 07:49:11;;;;;;;3.83;2.00;;;1.20;99.90;;;;;;4988636;28;20034;-77
2023/01/22 07:51:37;;;;;;;2.92;2.03;;;1.20;99.90;;;;;;4972851;28;20350;-77
2023/01/22 07:54:03;;;;;;;4.18;1.70;;;1.30;99.90;;;;;;5005189;28;20040;-74
2023/01/22 07:56:29;;;;;;;2.58;1.67;;;1.20;99.90;;;;;;5002549;28;20030;-76
2023/01/22 07:58:54;;;;;;;1.83;1.35;;;1.20;99.90;;;;;;4987295;28;20077;-74
2023/01/22 08:01:20;;;;;;;2.05;1.73;;;1.20;99.90;;;;;;5008205;28;20049;-75
2023/01/22 08:03:46;;;;;;;4.15;1.52;;;1.30;99.90;;;;;;5018371;28;20030;-74
2023/01/22 08:06:16;;;;;;;2.80;2.25;;;1.40;99.90;;;;;;5024810;28;20065;-72
2023/01/22 08:08:42;;;;;;;3.97;2.15;;;1.40;99.90;;;;;;5018363;28;20109;-75
2023/01/22 08:11:08;;;;;;;4.32;1.55;;;1.50;99.90;;;;;;5024748;28;20175;-73
2023/01/22 08:13:34;;;;;;;2.15;1.65;;;1.50;99.90;;;;;;5011314;28;20034;-73
2023/01/22 08:16:00;;;;;;;3.58;2.15;;;1.60;99.90;;;;;;5010405;28;20090;-71
2023/01/22 08:18:25;;;;;;;6.10;3.05;;;1.60;99.90;;;;;;5010662;28;20087;-73
2023/01/22 08:20:51;;;;;;;3.78;1.98;;;1.60;99.90;;;;;;5025682;28;20041;-71
2023/01/22 08:23:17;;;;;;;3.35;1.63;;;1.70;99.90;;;;;;5010987;28;20108;-71
2023/01/22 08:25:43;;;;;;;4.80;2.33;;;1.80;99.90;;;;;;5032953;23;20656;-72
2023/01/22 08:28:08;;;;;;;3.10;1.55;;;1.90;99.90;;;;;;5028140;28;20029;-76
2023/01/22 08:30:35;;;;;;;3.72;1.95;;;2.10;99.90;;;;;;5030858;28;20029;-78
2023/01/22 08:33:03;;;;;;;3.95;2.50;;;2.20;99.90;;;;;;5030672;28;20500;-76
2023/01/22 08:35:30;;;;;;;3.78;1.55;;;2.20;99.90;;;;;;5011777;28;20036;-76
2023/01/22 08:38:02;;;;;;;10.05;1.35;;;2.30;99.90;;;;;;5006704;28;20025;-74
2023/01/22 08:40:27;;;;;;;3.92;1.67;;;2.30;99.90;;;;;;5010333;28;20402;-78
2023/01/22 08:42:54;;;;;;;3.10;1.65;;;2.40;99.90;;;;;;5011291;28;20041;-77
2023/01/22 08:45:20;;;;;;;4.95;2.05;;;2.50;99.90;;;;;;4992692;28;20035;-71
2023/01/22 08:47:46;;;;;;;4.13;2.10;;;2.50;99.90;;;;;;5021826;28;20022;-73
2023/01/22 08:50:12;;;;;;;3.75;2.28;;;2.50;99.90;;;;;;5018641;28;20045;-73
2023/01/22 08:52:38;;;;;;;2.92;1.45;;;2.50;99.90;;;;;;5010581;28;20044;-73
2023/01/22 08:55:08;;;;;;;3.33;1.67;;;2.50;99.90;;;;;;5010203;28;20037;-74
2023/01/22 08:57:37;;;;;;;2.97;2.17;;;2.70;99.90;;;;;;5020253;28;20038;-73
2023/01/22 09:00:04;;;;;;;8.32;1.65;;;2.70;99.90;;;;;;5009802;28;20061;-73
2023/01/22 09:02:30;;;;;;;3.53;2.05;;;2.60;99.90;;;;;;5019484;28;20029;-73
2023/01/22 09:04:56;;;;;;;3.15;2.35;;;2.70;99.90;;;;;;5018073;28;20398;-73
2023/01/22 09:07:21;;;;;;;4.20;1.92;;;2.80;99.90;;;;;;5010121;28;20030;-72
2023/01/22 09:09:47;;;;;;;3.63;1.50;;;3.00;99.90;;;;;;5009567;28;20065;-72
2023/01/22 09:12:13;;;;;;;6.60;1.88;;;3.00;99.90;;;;;;5010557;28;20065;-73
2023/01/22 09:14:38;;;;;;;1.90;1.15;;;3.20;99.90;;;;;;4983899;28;20063;-73
2023/01/22 09:17:04;;;;;;;1.92;1.42;;;3.40;99.90;;;;;;5005718;28;20068;-73
2023/01/22 09:19:30;;;;;;;3.65;2.83;;;3.30;99.90;;;;;;5002586;28;20054;-74
2023/01/22 09:21:55;;;;;;;4.60;2.03;;;3.60;99.90;;;;;;4983502;28;20044;-73
2023/01/22 09:24:21;;;;;;;3.15;1.42;;;3.70;99.90;;;;;;4998234;28;20211;-73
2023/01/22 09:26:47;;;;;;;5.60;2.10;;;3.80;99.90;;;;;;4996425;28;20040;-73
2023/01/22 09:29:12;;;;;;;3.00;1.50;;;3.90;99.90;;;;;;4995044;28;20072;-72
2023/01/22 09:31:38;;;;;;;2.05;1.60;;;4.00;99.90;;;;;;4991577;28;20061;-72
2023/01/22 09:34:04;;;;;;;3.58;1.90;;;4.00;99.90;;;;;;4991864;28;20505;-73
2023/01/22 09:36:30;;;;;;;2.70;1.40;;;4.00;99.90;;;;;;4991070;28;20407;-74
2023/01/22 09:38:56;;;;;;;1.50;1.17;;;4.00;99.90;;;;;;5009134;28;20037;-73
2023/01/22 09:41:33;;;;;;;3.63;1.42;;;4.00;99.90;;;;;;5010155;28;20037;-74
2023/01/22 09:44:21;;;;;;;4.90;2.15;;;3.90;99.90;;;;;;5013855;28;20034;-73
2023/01/22 09:47:00;;;;;;;2.95;1.83;;;3.80;99.90;;;;;;5009623;28;20030;-73
2023/01/22 09:49:48;;;;;;;3.88;1.92;;;3.90;99.90;;;;;;5007938;28;20490;-73
2023/01/22 09:52:14;;;;;;;2.75;1.35;;;4.00;99.90;;;;;;5007043;28;20033;-72
2023/01/22 09:54:42;;;;;;;2.78;1.88;;;3.90;99.90;;;;;;5022779;28;20553;-73
2023/01/22 09:57:14;;;;;;;5.50;2.88;;;4.10;99.90;;;;;;5006438;28;20107;-73
2023/01/22 09:59:50;;;;;;;2.40;1.73;;;4.00;99.90;;;;;;4991212;28;20113;-73
2023/01/22 10:02:37;;;;;;;2.83;1.27;;;4.20;99.90;;;;;;5003217;28;20343;-73
2023/01/22 10:05:31;;;;;;;3.88;1.58;;;4.00;99.90;;;;;;5010976;28;20036;-73
2023/01/22 10:08:15;;;;;;;2.90;1.23;;;3.90;99.90;;;;;;5019181;28;20054;-73
2023/01/22 10:10:41;;;;;;;2.95;1.80;;;3.60;99.90;;;;;;5003008;28;20440;-73
2023/01/22 10:13:18;;;;;;;2.58;1.67;;;3.70;99.90;;;;;;5009093;28;20399;-73
2023/01/22 10:15:46;;;;;;;1.42;0.93;;;3.70;99.90;;;;;;5018471;28;20034;-74
2023/01/22 10:18:30;;;;;;;3.08;1.23;;;4.00;99.90;;;;;;4980365;28;20377;-74
2023/01/22 10:21:01;;;;;;;3.05;2.30;;;4.30;99.90;;;;;;5007157;28;20049;-74
2023/01/22 10:23:28;;;;;;;5.53;1.50;;;4.40;99.90;;;;;;4998326;28;20034;-77
2023/01/22 10:26:24;;;;;;;2.10;1.52;;;4.30;99.90;;;;;;4986775;28;20494;-77
2023/01/22 10:29:02;;;;;;;3.95;2.05;;;4.40;99.90;;;;;;5000679;28;20129;-72
2023/01/22 10:31:36;;;;;;;6.88;1.95;;;4.40;99.90;;;;;;4995773;28;20034;-74
2023/01/22 10:34:34;;;;;;;3.47;1.92;;;4.20;99.90;;;;;;5009727;28;20117;-74
2023/01/22 10:37:20;;;;;;;4.63;1.85;;;4.20;99.90;;;;;;5002252;28;20038;-73
2023/01/22 10:39:49;;;;;;;3.05;2.25;;;4.10;99.90;;;;;;5011909;28;20034;-75
2023/01/22 10:42:20;;;;;;;1.55;1.23;;;4.10;99.90;;;;;;5003321;28;20029;-76
2023/01/22 10:44:46;;;;;;;1.48;0.82;;;4.20;99.90;;;;;;5015241;28;20026;-75
2023/01/22 10:47:22;;;;;;;2.15;1.45;;;4.30;99.90;;;;;;5017625;28;20034;-74
2023/01/22 10:50:04;;;;;;;2.65;1.85;;;4.20;99.90;;;;;;5019596;28;20513;-73
2023/01/22 10:52:40;;;;;;;1.77;1.35;;;4.10;99.90;;;;;;4992380;28;20034;-74
2023/01/22 10:55:17;;;;;;;3.25;1.60;;;4.10;99.90;;;;;;5018105;28;20450;-73
2023/01/22 10:57:53;;;;;;;1.98;1.50;;;4.20;99.90;;;;;;5011434;28;20034;-74
2023/01/22 11:00:30;;;;;;;4.32;1.63;;;4.20;99.90;;;;;;4995662;28;20040;-74
2023/01/22 11:02:56;;;;;;;2.83;1.38;;;4.00;99.90;;;;;;5009403;28;20088;-73
2023/01/22 11:05:29;;;;;;;1.88;1.27;;;3.90;99.90;;;;;;5010330;28;20022;-73
2023/01/22 11:08:15;;;;;;;5.43;1.60;;;3.80;99.90;;;;;;5026003;28;20034;-74
2023/01/22 11:11:06;;;;;;;4.93;1.77;;;3.90;99.90;;;;;;5018657;28;20029;-73
2023/01/22 11:13:43;;;;;;;5.05;2.33;;;4.20;99.90;;;;;;5010776;28;20045;-73
2023/01/22 11:16:15;;;;;;;2.83;2.05;;;4.10;99.90;;;;;;5012261;28;20050;-73
2023/01/22 11:19:12;;;;;;;2.72;1.58;;;4.20;99.90;;;;;;5007055;28;20064;-73
2023/01/22 11:21:55;;;;;;;3.08;1.65;;;4.60;99.90;;;;;;5005929;28;20073;-74
2023/01/22 11:24:32;;;;;;;2.83;1.98;;;5.00;99.90;;;;;;4999055;28;20038;-73
2023/01/22 11:27:03;;;;;;;3.33;1.77;;;5.10;99.90;;;;;;5007447;28;20093;-74
2023/01/22 11:30:02;;;;;;;3.10;1.60;;;5.20;99.90;;;;;;5005466;28;20042;-73
2023/01/22 11:33:04;;;;;;;2.13;1.23;;;5.10;99.90;;;;;;5005565;28;20025;-71
2023/01/22 11:35:54;;;;;;;3.42;1.52;;;4.90;99.90;;;;;;4992899;28;20065;-73
2023/01/22 11:38:41;;;;;;;2.33;1.05;;;5.00;99.90;;;;;;5010486;28;20502;-74
2023/01/22 11:41:46;;;;;;;3.10;2.05;;;5.20;99.90;;;;;;5005238;28;20064;-80
2023/01/22 11:44:39;;;;;;;2.47;1.50;;;5.30;99.90;;;;;;5010632;28;20018;-78
2023/01/22 11:47:38;;;;;;;2.80;1.05;;;5.30;99.90;;;;;;5011281;28;20034;-81
2023/01/22 11:50:29;;;;;;;1.63;1.02;;;5.40;99.90;;;;;;5009732;28;20026;-77
2023/01/22 11:53:27;;;;;;;17.10;6.85;;;5.40;99.90;;;;;;4993088;28;20148;-77
2023/01/22 11:56:23;;;;;;;5.15;1.98;;;5.30;99.90;;;;;;5009860;28;20092;-76
2023/01/22 11:59:01;;;;;;;2.10;1.08;;;5.10;99.90;;;;;;5022000;28;20460;-75
2023/01/22 12:01:48;;;;;;;1.95;1.20;;;4.90;99.90;;;;;;5022859;28;20025;-74
2023/01/22 12:04:42;;;;;;;2.22;1.55;;;4.60;99.90;;;;;;5011125;28;20617;-74
2023/01/22 12:07:24;;;;;;;3.15;1.67;;;4.50;99.90;;;;;;5000299;28;20137;-77
2023/01/22 12:10:00;;;;;;;3.08;1.80;;;4.60;99.90;;;;;;4998499;28;20504;-81
2023/01/22 12:13:08;;;;;;;2.10;1.65;;;4.50;99.90;;;;;;5005885;28;20444;-78
2023/01/22 12:15:48;;;;;;;3.85;1.77;;;4.10;99.90;;;;;;4998900;28;20037;-79
2023/01/22 12:18:50;;;;;;;5.68;1.80;;;4.30;99.90;;;;;;5009194;28;20030;-78
2023/01/22 12:21:42;;;;;;;4.82;1.70;;;4.40;99.90;;;;;;5002900;28;20067;-78
2023/01/22 12:24:24;;;;;;;2.42;1.60;;;4.50;99.90;;;;;;5009842;28;20033;-76
2023/01/22 12:27:10;;;;;;;3.90;1.90;;;4.70;99.90;;;;;;5009935;28;20485;-77
2023/01/22 12:29:54;;;;;;;3.83;1.98;;;4.60;99.90;;;;;;5011430;28;20112;-76
2023/01/22 12:32:23;;;;;;;5.45;3.28;;;4.70;99.90;;;;;;4991174;28;20034;-76
2023/01/22 12:35:05;;;;;;;3.60;1.98;;;4.30;99.90;;;;;;5000693;28;20033;-79
2023/01/22 12:37:47;;;;;;;3.20;1.58;;;4.30;99.90;;;;;;5009432;28;20042;-76
2023/01/22 12:40:25;;;;;;;3.55;1.38;;;4.40;99.90;;;;;;5009698;28;20808;-77
2023/01/22 12:43:01;;;;;;;3.97;1.98;;;4.40;99.90;;;;;;4986176;28;20038;-77
2023/01/22 12:46:37;;;;;;;4.65;2.42;;;3.90;99.90;;;;;;5016700;28;20022;-79
2023/01/22 12:49:09;;;;;;;2.72;2.10;;;3.90;99.90;;;;;;4903476;29;20515;-78
2023/01/22 12:51:50;;;;;;;4.80;1.70;;;4.10;99.90;;;;;;4895770;29;20047;-78
2023/01/22 12:54:29;;;;;;;2.28;1.60;;;4.00;99.90;;;;;;4914227;29;20593;-78
2023/01/22 12:57:13;;;;;;;3.22;1.67;;;3.90;99.90;;;;;;4915987;29;20048;-78
2023/01/22 12:59:41;;;;;;;3.30;1.60;;;3.90;99.90;;;;;;4907129;29;20087;-77
2023/01/22 13:02:25;;;;;;;2.28;1.13;;;3.80;99.90;;;;;;4916901;29;20119;-77
2023/01/22 13:04:52;;;;;;;3.90;1.77;;;3.60;99.90;;;;;;4917169;29;20114;-77
2023/01/22 13:07:35;;;;;;;2.97;1.88;;;3.70;99.90;;;;;;4913542;29;20039;-77
2023/01/22 13:10:19;;;;;;;3.92;1.92;;;3.60;99.90;;;;;;4922846;29;20039;-78
2023/01/22 13:12:48;;;;;;;4.80;2.35;;;3.70;99.90;;;;;;4923064;29;20195;-78
2023/01/22 13:15:29;;;;;;;1.85;1.38;;;3.70;99.90;;;;;;4929368;29;20044;-78
2023/01/22 13:18:01;;;;;;;3.72;2.08;;;3.60;99.90;;;;;;4929544;29;20028;-78
2023/01/22 13:20:44;;;;;;;3.20;1.80;;;3.70;99.90;;;;;;4991044;28;20421;-78
2023/01/22 13:23:12;;;;;;;4.43;1.63;;;3.60;99.90;;;;;;4982964;28;20069;-78
2023/01/22 13:25:38;;;;;;;8.82;2.05;;;3.60;99.90;;;;;;4966360;28;1056321;-77